createdAt,value
2023-01-04T00:04:19.745Z,3.13
2023-01-04T00:09:26.742Z,3.05
2023-01-04T00:14:34.639Z,2.90
2023-01-04T00:19:41.134Z,2.92
2023-01-04T00:24:47.895Z,2.86
2023-01-04T00:29:55.670Z,2.85
2023-01-04T00:35:02.199Z,2.73
2023-01-04T00:40:11.644Z,2.74
2023-01-04T00:45:20.442Z,2.69
2023-01-04T00:50:26.928Z,2.67
2023-01-04T00:55:33.733Z,2.63
2023-01-04T01:00:42.737Z,2.37
2023-01-04T01:05:49.141Z,2.28
2023-01-04T01:10:56.996Z,2.29
2023-01-04T01:16:11.166Z,2.17
2023-01-04T01:21:20.754Z,2.07
2023-01-04T01:26:28.346Z,1.97
2023-01-04T01:31:36.420Z,1.74
2023-01-04T01:36:43.116Z,1.77
2023-01-04T01:41:50.315Z,1.78
2023-01-04T01:46:58.944Z,1.73
2023-01-04T01:52:12.282Z,1.68
2023-01-04T01:57:24.301Z,1.71
2023-01-04T02:02:32.622Z,1.78
2023-01-04T02:07:40.415Z,1.71
2023-01-04T02:12:48.148Z,1.71
2023-01-04T02:18:05.821Z,1.48
2023-01-04T02:23:53.471Z,1.46
2023-01-04T02:29:54.004Z,1.21
2023-01-04T02:35:13.859Z,1.22
2023-01-04T02:40:30.036Z,1.31
2023-01-04T02:45:44.415Z,1.03
2023-01-04T02:50:58.524Z,0.90
2023-01-04T02:56:18.367Z,0.97
2023-01-04T03:01:57.498Z,0.59
2023-01-04T03:07:16.881Z,0.56
2023-01-04T03:12:35.761Z,0.61
2023-01-04T03:17:49.761Z,0.67
2023-01-04T03:23:21.731Z,0.69
2023-01-04T03:28:50.746Z,0.74
2023-01-04T03:34:13.980Z,0.48
2023-01-04T03:39:51.078Z,0.38
2023-01-04T03:45:31.860Z,0.37
2023-01-04T03:50:43.187Z,0.42
2023-01-04T03:55:52.775Z,0.37
2023-01-04T04:01:04.099Z,0.37
2023-01-04T04:06:29.166Z,0.51
2023-01-04T04:11:37.043Z,0.05
2023-01-04T04:16:43.902Z,0.10
2023-01-04T04:21:50.421Z,0.07
2023-01-04T04:26:58.526Z,0.13
2023-01-04T04:32:05.266Z,-0.09
2023-01-04T04:37:11.918Z,0.09
2023-01-04T04:42:19.979Z,0.04
2023-01-04T04:47:26.319Z,-0.11
2023-01-04T04:52:32.828Z,-0.03
2023-01-04T04:57:40.834Z,-0.17
2023-01-04T05:02:47.947Z,-0.41
2023-01-04T05:07:54.857Z,-0.44
2023-01-04T05:13:02.850Z,-0.16
2023-01-04T05:18:11.432Z,-0.12
2023-01-04T05:23:21.883Z,-0.16
2023-01-04T05:28:30.467Z,-0.18
2023-01-04T05:33:37.660Z,-0.26
2023-01-04T05:38:44.210Z,-0.34
2023-01-04T05:43:52.419Z,-0.35
2023-01-04T05:48:58.962Z,-0.36
2023-01-04T05:54:05.643Z,-0.37
2023-01-04T05:59:14.035Z,-0.31
2023-01-04T06:04:22.015Z,-0.30
2023-01-04T06:09:28.978Z,-0.48
2023-01-04T06:14:37.703Z,-0.47
2023-01-04T06:19:44.764Z,-0.45
2023-01-04T06:24:51.955Z,-0.89
2023-01-04T06:30:00.438Z,-0.83
2023-01-04T06:35:08.450Z,-0.77
2023-01-04T06:40:15.967Z,-0.73
2023-01-04T06:45:25.091Z,-0.86
2023-01-04T06:50:33.006Z,-0.71
2023-01-04T06:55:41.977Z,-0.54
2023-01-04T07:00:54.726Z,-0.87
2023-01-04T07:06:05.299Z,-1.23
2023-01-04T07:11:13.234Z,-1.26
2023-01-04T07:16:22.326Z,-1.14
2023-01-04T07:21:30.416Z,-1.15
2023-01-04T07:26:37.888Z,-1.13
2023-01-04T07:31:48.853Z,-0.91
2023-01-04T07:36:56.067Z,-0.77
2023-01-04T07:42:03.112Z,-0.74
2023-01-04T07:47:11.233Z,-1.03
2023-01-04T07:52:19.682Z,-0.96
2023-01-04T07:57:26.666Z,-0.81
2023-01-04T08:02:35.505Z,-0.78
2023-01-04T08:07:42.799Z,-0.73
2023-01-04T08:12:49.645Z,-0.55
2023-01-04T08:17:58.699Z,-0.51
2023-01-04T08:23:06.313Z,-0.50
2023-01-04T08:28:13.587Z,-0.38
2023-01-04T08:33:21.920Z,-0.28
2023-01-04T08:38:58.686Z,-0.23
2023-01-04T08:43:55.480Z,-0.10
2023-01-04T08:49:03.674Z,0.02
2023-01-04T08:54:12.060Z,0.13
2023-01-04T08:59:19.428Z,0.26
2023-01-04T09:04:27.869Z,0.40
2023-01-04T09:09:35.519Z,0.51
2023-01-04T09:14:42.172Z,0.63
2023-01-04T09:19:50.311Z,0.79
2023-01-04T09:24:57.313Z,1.04
2023-01-04T09:30:04.437Z,1.22
2023-01-04T09:35:13.395Z,1.41
2023-01-04T09:40:29.197Z,1.51
2023-01-04T09:45:35.779Z,1.61
2023-01-04T09:50:54.874Z,1.69
2023-01-04T09:56:18.756Z,1.81
2023-01-04T10:01:30.239Z,1.90
2023-01-04T10:06:40.381Z,2.02
2023-01-04T10:12:15.865Z,2.10
2023-01-04T10:18:34.119Z,2.18
2023-01-04T10:23:13.616Z,2.27
2023-01-04T10:28:38.240Z,2.33
2023-01-04T10:33:50.350Z,2.38
2023-01-04T10:39:04.275Z,2.48
2023-01-04T10:44:18.003Z,2.55
2023-01-04T10:49:35.626Z,2.63
2023-01-04T10:54:49.504Z,2.71
2023-01-04T11:00:03.281Z,2.80
2023-01-04T11:05:21.274Z,2.88
2023-01-04T11:10:36.754Z,2.97
2023-01-04T11:15:45.688Z,3.06
2023-01-04T11:20:52.593Z,3.14
2023-01-04T11:26:06.100Z,3.20
2023-01-04T11:31:24.687Z,3.26
2023-01-04T11:36:40.396Z,3.31
2023-01-04T11:42:02.927Z,3.36
2023-01-04T11:47:18.733Z,3.39
2023-01-04T11:52:34.322Z,3.44
2023-01-04T11:57:42.188Z,3.50
2023-01-04T12:03:01.383Z,3.56
2023-01-04T12:08:09.248Z,3.65
2023-01-04T12:13:18.154Z,3.70
2023-01-04T12:18:30.949Z,3.73
2023-01-04T12:23:37.180Z,3.78
2023-01-04T12:28:47.784Z,3.81
2023-01-04T12:33:56.543Z,3.82
2023-01-04T12:39:29.543Z,3.89
2023-01-04T12:45:25.289Z,3.93
2023-01-04T12:50:33.479Z,3.95
2023-01-04T12:56:01.395Z,4.01
2023-01-04T13:01:28.397Z,4.03
2023-01-04T13:06:48.157Z,4.05
2023-01-04T13:12:22.480Z,4.10
2023-01-04T13:17:31.564Z,4.12
2023-01-04T13:22:37.882Z,4.11
2023-01-04T13:27:58.547Z,4.10
2023-01-04T13:33:27.141Z,4.12
2023-01-04T13:38:37.415Z,4.14
2023-01-04T13:44:04.840Z,4.15
2023-01-04T13:49:17.624Z,4.14
2023-01-04T13:54:28.944Z,4.14
2023-01-04T13:59:39.649Z,4.18
2023-01-04T14:04:49.569Z,4.18
2023-01-04T14:10:02.060Z,4.18
2023-01-04T14:15:21.189Z,4.20
2023-01-04T14:20:38.267Z,4.21
2023-01-04T14:25:48.864Z,4.24
2023-01-04T14:30:58.176Z,4.24
2023-01-04T14:36:14.060Z,4.17
2023-01-04T14:41:24.363Z,4.16
2023-01-04T14:46:33.380Z,4.10
2023-01-04T14:51:46.577Z,4.08
2023-01-04T14:56:53.714Z,4.07
2023-01-04T15:02:00.947Z,4.06
2023-01-04T15:07:29.594Z,4.07
2023-01-04T15:12:36.169Z,4.06
2023-01-04T15:17:42.717Z,4.07
2023-01-04T15:22:50.756Z,4.11
2023-01-04T15:27:57.148Z,4.13
2023-01-04T15:33:03.603Z,4.14
2023-01-04T15:38:16.143Z,4.15
2023-01-04T15:43:25.099Z,4.19
2023-01-04T15:48:33.859Z,4.19
2023-01-04T15:53:42.245Z,4.19
2023-01-04T15:58:49.331Z,4.18
2023-01-04T16:03:56.063Z,4.17
2023-01-04T16:09:04.112Z,4.17
2023-01-04T16:14:12.383Z,4.17
2023-01-04T16:19:19.721Z,4.17
2023-01-04T16:29:54.456Z,4.17
2023-01-04T16:35:01.365Z,4.19
2023-01-04T16:40:13.900Z,4.19
2023-01-04T16:45:21.087Z,4.17
2023-01-04T16:50:28.718Z,4.21
2023-01-04T16:55:37.183Z,4.21
2023-01-04T17:00:44.208Z,4.22
2023-01-04T17:05:51.195Z,4.25
2023-01-04T17:11:27.591Z,4.26
2023-01-04T17:16:30.984Z,4.28
2023-01-04T17:21:41.065Z,4.25
2023-01-04T17:26:49.419Z,4.29
2023-01-04T17:31:56.353Z,4.31
2023-01-04T17:37:03.096Z,4.35
2023-01-04T17:42:12.477Z,4.33
2023-01-04T17:47:19.639Z,4.38
2023-01-04T17:52:31.033Z,4.40
2023-01-04T17:57:40.349Z,4.40
2023-01-04T18:02:47.686Z,4.44
2023-01-04T18:07:55.537Z,4.47
2023-01-04T18:13:03.978Z,4.45
2023-01-04T18:18:11.111Z,4.50
2023-01-04T18:23:25.287Z,4.55
2023-01-04T18:28:36.625Z,4.58
2023-01-04T18:33:45.041Z,4.62
2023-01-04T18:38:56.025Z,4.67
2023-01-04T18:44:31.376Z,4.67
2023-01-04T18:49:36.866Z,4.68
2023-01-04T18:54:45.538Z,4.70
2023-01-04T18:59:55.140Z,4.75
2023-01-04T19:05:06.753Z,4.74
2023-01-04T19:10:15.789Z,4.82
2023-01-04T19:15:26.506Z,4.84
2023-01-04T19:20:36.370Z,4.84
2023-01-04T19:25:47.993Z,4.89
2023-01-04T19:30:57.237Z,4.94
2023-01-04T19:36:08.425Z,4.96
2023-01-04T19:41:29.343Z,4.95
2023-01-04T19:46:45.682Z,5.03
2023-01-04T19:51:58.416Z,4.99
2023-01-04T19:57:07.673Z,5.06
2023-01-04T20:02:16.918Z,5.09
2023-01-04T20:07:24.802Z,5.11
2023-01-04T20:12:32.530Z,5.17
2023-01-04T20:17:45.228Z,5.17
2023-01-04T20:22:53.706Z,5.15
2023-01-04T20:28:02.810Z,5.18
2023-01-04T20:33:12.752Z,5.21
2023-01-04T20:38:25.068Z,5.26
2023-01-04T20:43:37.701Z,5.31
2023-01-04T20:48:46.878Z,5.33
2023-01-04T20:53:55.152Z,5.35
2023-01-04T20:59:03.234Z,5.36
2023-01-04T21:04:16.239Z,5.39
2023-01-04T21:09:24.671Z,5.42
2023-01-04T21:14:36.543Z,5.47
2023-01-04T21:19:46.250Z,5.49
2023-01-04T21:24:53.765Z,5.50
2023-01-04T21:30:01.614Z,5.52
2023-01-04T21:35:11.506Z,5.56
2023-01-04T21:40:17.881Z,5.61
2023-01-04T21:45:26.393Z,5.65
2023-01-04T21:50:38.777Z,5.68
2023-01-04T21:55:45.251Z,5.71
2023-01-04T22:00:52.088Z,5.74
2023-01-04T22:06:05.421Z,5.74
2023-01-04T22:11:12.433Z,5.75
2023-01-04T22:16:19.991Z,5.81
2023-01-04T22:21:28.272Z,5.82
2023-01-04T22:26:34.703Z,5.87
2023-01-04T22:31:41.016Z,5.88
2023-01-04T22:36:48.884Z,5.91
2023-01-04T22:41:55.200Z,5.96
2023-01-04T22:47:01.787Z,5.99
2023-01-04T22:52:09.670Z,5.99
2023-01-04T22:57:16.119Z,6.05
2023-01-04T23:02:22.732Z,6.05
2023-01-04T23:07:30.816Z,6.08
2023-01-04T23:12:37.184Z,6.12
2023-01-04T23:17:44.028Z,6.16
2023-01-04T23:22:51.834Z,6.20
2023-01-04T23:27:58.239Z,6.19
2023-01-04T23:33:04.630Z,6.27
2023-01-04T23:38:12.551Z,6.29
2023-01-04T23:43:18.787Z,6.32
2023-01-04T23:48:25.343Z,6.37
2023-01-04T23:53:33.433Z,6.37
2023-01-04T23:58:39.850Z,6.40
